Cape Texel — V7RC4 — position and weather

sailwx.info

Track history (hours):
 
Tides and Currents Weather Stations Pressure Air Temp Water Temp Dewpoint Dewpoint Depression Visibility Wind Speed Wind Dir Waves Ship Positions

Cape Texel

Last reported at 2016-Aug-15 00:33 UTC. Time now 2016-Aug-24 13:45 UTC.
Position N 36°42' E 123°17'.
Warning: this ship's position is 9 days out of date.

Length 228 m; draft 8.2 m.

Type: Ship (hazmat cat A). MMSI: 538090383.

Date/timePositionNaut miles runAvg speedWind from/ knotsBaromVisibWave heightAir tempDewpointWater temp
2016-Aug-15 00:33N 36°42' E 123°17'1414.0
2016-Aug-14 23:33N 36°56' E 123°16'1414.0
2016-Aug-14 22:33N 37°10' E 123°15'1313.4
2016-Aug-14 21:33N 37°23' E 123°15'1411.6
2016-Aug-14 20:19N 37°33' E 123°02'1012.9
2016-Aug-14 19:33N 37°38' E 122°51'1313.0
2016-Aug-14 18:33N 37°45' E 122°37'1010.5
2016-Aug-14 17:33N 37°50' E 122°25'1413.7
2016-Aug-14 16:34N 37°57' E 122°11'1414.3
2016-Aug-14 15:33N 38°03' E 121°54'1413.7
2016-Aug-14 14:34N 38°11' E 121°40'1414.0
2016-Aug-14 13:32N 38°19' E 121°25'1513.8
2016-Aug-14 12:29N 38°26' E 121°08'1212.9
2016-Aug-14 11:33N 38°32' E 120°55'1312.9
2016-Aug-14 10:33N 38°32' E 120°39'1913.0
2016-Aug-14 09:04N 38°33' E 120°14'1012.9
2016-Aug-14 08:17N 38°31' E 120°02'1013.1
2016-Aug-14 07:31N 38°27' E 119°50'1313.4
2016-Aug-14 06:33N 38°22' E 119°35'22 2.7
2016-Aug-13 22:15N 38°10' E 119°11'  
2016-Aug-11 00:16N 38°09' E 119°04'0 0.3
2016-Aug-10 23:32N 38°10' E 119°04'2 2.0
2016-Aug-10 22:20N 38°11' E 119°06'2 2.2
2016-Aug-10 21:32N 38°11' E 119°08'2 0.6
2016-Aug-10 18:32N 38°11' E 119°11'1 0.1
2016-Aug-10 05:31N 38°11' E 119°12'5 5.4
2016-Aug-10 04:33N 38°13' E 119°18'3 0.7
2016-Aug-10 00:29N 38°15' E 119°21'0 0.1
2016-Aug-09 23:25N 38°15' E 119°21'0 0.1
2016-Aug-09 22:28N 38°15' E 119°21'0 0.0
2016-Aug-09 21:31N 38°15' E 119°21'0 0.0
2016-Aug-09 20:31N 38°15' E 119°21'0 0.1
2016-Aug-09 19:28N 38°15' E 119°21'0 0.0
2016-Aug-09 11:31N 38°15' E 119°21'0 0.0
2016-Aug-09 08:28N 38°15' E 119°21'0 0.0
2016-Aug-08 19:10N 38°15' E 119°21'0 0.1
2016-Aug-08 18:22N 38°15' E 119°21'  
2016-Aug-05 22:28N 38°15' E 119°21'3 0.5
2016-Aug-05 15:27N 38°16' E 119°25'6 6.9
2016-Aug-05 14:34N 38°19' E 119°32'1211.6
2016-Aug-05 13:34N 38°25' E 119°44'1111.2
2016-Aug-05 12:34N 38°29' E 119°58'1111.2
2016-Aug-05 11:33N 38°33' E 120°11'1211.3
2016-Aug-05 10:32N 38°35' E 120°26'1211.7
2016-Aug-05 09:33N 38°36' E 120°41'1211.8
2016-Aug-05 08:34N 38°37' E 120°56'1313.2
2016-Aug-05 07:33N 38°30' E 121°10'1313.1
2016-Aug-05 06:34N 38°22' E 121°24'2612.7
2016-Aug-05 04:31N 38°09' E 121°52'1211.8
2016-Aug-05 03:31N 38°02' E 122°04'1612.0
2016-Aug-05 02:10N 37°51' E 122°19'812.6
2016-Aug-05 01:30N 37°46' E 122°28'  
Track history (hours):
 
Tides and Currents Weather Stations Pressure Air Temp Water Temp Dewpoint Dewpoint Depression Visibility Wind Speed Wind Dir Waves Ship Positions

Cape Texel

Last reported at 2016-Aug-15 00:33 UTC. Time now 2016-Aug-24 13:45 UTC.
Position N 36°42' E 123°17'.
Warning: this ship's position is 9 days out of date.

Length 228 m; draft 8.2 m.

Type: Ship (hazmat cat A). MMSI: 538090383.

Date/timePositionNaut miles runAvg speedWind from/ knotsBaromVisibWave heightAir tempDewpointWater temp
2016-Aug-15 00:33N 36°42' E 123°17'1414.0
2016-Aug-14 23:33N 36°56' E 123°16'1414.0
2016-Aug-14 22:33N 37°10' E 123°15'1313.4
2016-Aug-14 21:33N 37°23' E 123°15'1411.6
2016-Aug-14 20:19N 37°33' E 123°02'1012.9
2016-Aug-14 19:33N 37°38' E 122°51'1313.0
2016-Aug-14 18:33N 37°45' E 122°37'1010.5
2016-Aug-14 17:33N 37°50' E 122°25'1413.7
2016-Aug-14 16:34N 37°57' E 122°11'1414.3
2016-Aug-14 15:33N 38°03' E 121°54'1413.7
2016-Aug-14 14:34N 38°11' E 121°40'1414.0
2016-Aug-14 13:32N 38°19' E 121°25'1513.8
2016-Aug-14 12:29N 38°26' E 121°08'1212.9
2016-Aug-14 11:33N 38°32' E 120°55'1312.9
2016-Aug-14 10:33N 38°32' E 120°39'1913.0
2016-Aug-14 09:04N 38°33' E 120°14'1012.9
2016-Aug-14 08:17N 38°31' E 120°02'1013.1
2016-Aug-14 07:31N 38°27' E 119°50'1313.4
2016-Aug-14 06:33N 38°22' E 119°35'22 2.7
2016-Aug-13 22:15N 38°10' E 119°11'  
2016-Aug-11 00:16N 38°09' E 119°04'0 0.3
2016-Aug-10 23:32N 38°10' E 119°04'2 2.0
2016-Aug-10 22:20N 38°11' E 119°06'2 2.2
2016-Aug-10 21:32N 38°11' E 119°08'2 0.6
2016-Aug-10 18:32N 38°11' E 119°11'1 0.1
2016-Aug-10 05:31N 38°11' E 119°12'5 5.4
2016-Aug-10 04:33N 38°13' E 119°18'3 0.7
2016-Aug-10 00:29N 38°15' E 119°21'0 0.1
2016-Aug-09 23:25N 38°15' E 119°21'0 0.1
2016-Aug-09 22:28N 38°15' E 119°21'0 0.0
2016-Aug-09 21:31N 38°15' E 119°21'0 0.0
2016-Aug-09 20:31N 38°15' E 119°21'0 0.1
2016-Aug-09 19:28N 38°15' E 119°21'0 0.0
2016-Aug-09 11:31N 38°15' E 119°21'0 0.0
2016-Aug-09 08:28N 38°15' E 119°21'0 0.0
2016-Aug-08 19:10N 38°15' E 119°21'0 0.1
2016-Aug-08 18:22N 38°15' E 119°21'  
2016-Aug-05 22:28N 38°15' E 119°21'3 0.5
2016-Aug-05 15:27N 38°16' E 119°25'6 6.9
2016-Aug-05 14:34N 38°19' E 119°32'1211.6
2016-Aug-05 13:34N 38°25' E 119°44'1111.2
2016-Aug-05 12:34N 38°29' E 119°58'1111.2
2016-Aug-05 11:33N 38°33' E 120°11'1211.3
2016-Aug-05 10:32N 38°35' E 120°26'1211.7
2016-Aug-05 09:33N 38°36' E 120°41'1211.8
2016-Aug-05 08:34N 38°37' E 120°56'1313.2
2016-Aug-05 07:33N 38°30' E 121°10'1313.1
2016-Aug-05 06:34N 38°22' E 121°24'2612.7
2016-Aug-05 04:31N 38°09' E 121°52'1211.8
2016-Aug-05 03:31N 38°02' E 122°04'1612.0
2016-Aug-05 02:10N 37°51' E 122°19'812.6
2016-Aug-05 01:30N 37°46' E 122°28'  

Dump ship's entire track history